Главная страница
METAR-TAF:

METAR-TAF

Аэропорты :

Ндола, Замбия

широта: 12-59-50S, долгота: 028-39-50E, высота над уровнем моря: 1270 м

METAR: отсутствует

Время: 15:10 (13:10 UTC)

Прогноз

Эта сводка был подготовлена 3 часа и 10 минут назад, в 10:00 UTC
Прогноз действительный с 03-го 12 UTC до 04-го 18 UTC
Ветер 5 Узел от южный
Видимость: 8000 м
небольшая облачность на высоте 3000 фута, Кучево-дождевые.
Рассеянная облачность на высоте 3500 фута
дым
Вероятность 30% :
временами
С 03-го 12 UTC до 03-го 14 UTC
гроза, дождь
изменения
С 03-го 16 UTC до 03-го 18 UTC
Ветер 5 Узел от юго-восточный
Видимость 10 км и более
небольшая облачность , Кучево-дождевые.
Вероятность 30% :
временами
С 03-го 20 UTC до 03-го 22 UTC
Видимость: 8000 м
гроза, дождь,

TAF: FLSK 031000Z 0312/0418 17005KT 8000 FU FEW030CB BKN035 PROB30 TEMPO 0312/0314 TSRA BECMG 0316/0318 13005KT 9999 FEW///CB PROB30 TEMPO 0320/0322 8000 TSRA

Метеонаблюдения и прогнозы для более 4000 аэропортов (сводки METAR и TAF).

Имеющиеся станции представлены на карте желтыми и красными точками.

Чтобы увидеть название станции, наведите на нее мышь.

Затем щелкните, чтобы увидеть метеонаблюдения и метеопрогнозы.

Управление картой: чтобы увеличить масштаб, щелкните зеленые кнопки с черным крестиком; чтобы уменьшить масштаб, щелкните зеленую кнопку с тире; для просмотра соседних карт щелкайте зеленые стрелки.


METAR-TAF: